sensor_id;sensor_type;location;lat;lon;timestamp;pressure;altitude;pressure_sealevel;temperature;humidity
44934;BME280;30667;43.614;1.442;2023-05-12T00:02:13;100120.69;;;11.01;100.00
44934;BME280;30667;43.614;1.442;2023-05-12T00:04:38;100126.09;;;11.01;100.00
44934;BME280;30667;43.614;1.442;2023-05-12T00:07:04;100115.84;;;10.98;100.00
44934;BME280;30667;43.614;1.442;2023-05-12T00:09:31;100119.09;;;11.00;100.00
44934;BME280;30667;43.614;1.442;2023-05-12T00:11:56;100121.00;;;10.94;100.00
44934;BME280;30667;43.614;1.442;2023-05-12T00:14:22;100124.53;;;10.95;100.00
44934;BME280;30667;43.614;1.442;2023-05-12T00:16:47;100122.94;;;10.88;100.00
44934;BME280;30667;43.614;1.442;2023-05-12T00:19:16;100125.06;;;10.86;100.00
44934;BME280;30667;43.614;1.442;2023-05-12T00:21:42;100120.78;;;10.85;100.00
44934;BME280;30667;43.614;1.442;2023-05-12T00:24:08;100115.94;;;10.72;100.00
44934;BME280;30667;43.614;1.442;2023-05-12T00:26:33;100108.38;;;10.74;100.00
44934;BME280;30667;43.614;1.442;2023-05-12T00:28:58;100110.78;;;10.76;100.00
44934;BME280;30667;43.614;1.442;2023-05-12T00:31:24;100106.19;;;10.76;100.00
44934;BME280;30667;43.614;1.442;2023-05-12T00:33:50;100100.25;;;10.74;100.00
44934;BME280;30667;43.614;1.442;2023-05-12T00:36:15;100098.63;;;10.73;100.00
44934;BME280;30667;43.614;1.442;2023-05-12T00:38:40;100098.66;;;10.63;100.00
44934;BME280;30667;43.614;1.442;2023-05-12T00:41:06;100092.16;;;10.64;100.00
44934;BME280;30667;43.614;1.442;2023-05-12T00:43:31;100094.31;;;10.67;100.00
44934;BME280;30667;43.614;1.442;2023-05-12T00:45:59;100096.50;;;10.65;100.00
44934;BME280;30667;43.614;1.442;2023-05-12T00:48:25;100088.09;;;10.66;100.00
44934;BME280;30667;43.614;1.442;2023-05-12T00:50:50;100082.44;;;10.63;100.00
44934;BME280;30667;43.614;1.442;2023-05-12T00:53:16;100090.81;;;10.61;100.00
44934;BME280;30667;43.614;1.442;2023-05-12T00:55:42;100084.34;;;10.57;100.00
44934;BME280;30667;43.614;1.442;2023-05-12T00:58:08;100079.44;;;10.64;100.00
44934;BME280;30667;43.614;1.442;2023-05-12T01:00:33;100084.31;;;10.67;100.00
44934;BME280;30667;43.614;1.442;2023-05-12T01:02:59;100078.63;;;10.64;100.00
44934;BME280;30667;43.614;1.442;2023-05-12T01:05:29;100071.34;;;10.64;100.00
44934;BME280;30667;43.614;1.442;2023-05-12T01:07:58;100071.88;;;10.61;100.00
44934;BME280;30667;43.614;1.442;2023-05-12T01:10:24;100070.28;;;10.55;100.00
44934;BME280;30667;43.614;1.442;2023-05-12T01:12:49;100061.63;;;10.53;100.00
44934;BME280;30667;43.614;1.442;2023-05-12T01:15:16;100066.75;;;10.54;100.00
44934;BME280;30667;43.614;1.442;2023-05-12T01:17:46;100061.88;;;10.57;100.00
44934;BME280;30667;43.614;1.442;2023-05-12T01:20:15;100055.94;;;10.60;100.00
44934;BME280;30667;43.614;1.442;2023-05-12T01:22:42;100058.63;;;10.60;100.00
44934;BME280;30667;43.614;1.442;2023-05-12T01:25:10;100057.81;;;10.59;100.00
44934;BME280;30667;43.614;1.442;2023-05-12T01:27:37;100068.34;;;10.61;100.00
44934;BME280;30667;43.614;1.442;2023-05-12T01:30:05;100072.69;;;10.62;100.00
44934;BME280;30667;43.614;1.442;2023-05-12T01:32:32;100075.66;;;10.60;100.00
44934;BME280;30667;43.614;1.442;2023-05-12T01:34:57;100071.06;;;10.56;100.00
44934;BME280;30667;43.614;1.442;2023-05-12T01:37:23;100070.00;;;10.57;100.00
44934;BME280;30667;43.614;1.442;2023-05-12T01:39:52;100073.81;;;10.50;100.00
44934;BME280;30667;43.614;1.442;2023-05-12T01:42:18;100064.59;;;10.57;100.00
44934;BME280;30667;43.614;1.442;2023-05-12T01:44:43;100066.50;;;10.51;100.00
44934;BME280;30667;43.614;1.442;2023-05-12T01:47:08;100062.19;;;10.50;100.00
44934;BME280;30667;43.614;1.442;2023-05-12T01:49:38;100056.22;;;10.53;100.00
44934;BME280;30667;43.614;1.442;2023-05-12T01:52:04;100052.19;;;10.45;100.00
44934;BME280;30667;43.614;1.442;2023-05-12T01:54:29;100054.06;;;10.50;100.00
44934;BME280;30667;43.614;1.442;2023-05-12T01:56:55;100054.34;;;10.48;100.00
44934;BME280;30667;43.614;1.442;2023-05-12T01:59:20;100047.59;;;10.46;100.00
44934;BME280;30667;43.614;1.442;2023-05-12T02:01:45;100045.69;;;10.46;100.00
44934;BME280;30667;43.614;1.442;2023-05-12T02:04:11;100055.94;;;10.49;100.00
44934;BME280;30667;43.614;1.442;2023-05-12T02:06:36;100048.66;;;10.45;100.00
44934;BME280;30667;43.614;1.442;2023-05-12T02:09:02;100038.94;;;10.39;100.00
44934;BME280;30667;43.614;1.442;2023-05-12T02:11:28;100044.09;;;10.35;100.00
44934;BME280;30667;43.614;1.442;2023-05-12T02:13:53;100038.16;;;10.28;100.00
44934;BME280;30667;43.614;1.442;2023-05-12T02:16:19;100039.78;;;10.24;100.00
44934;BME280;30667;43.614;1.442;2023-05-12T02:18:44;100047.09;;;10.23;100.00
44934;BME280;30667;43.614;1.442;2023-05-12T02:21:10;100045.44;;;10.22;100.00
44934;BME280;30667;43.614;1.442;2023-05-12T02:23:35;100040.31;;;10.21;100.00
44934;BME280;30667;43.614;1.442;2023-05-12T02:26:01;100042.50;;;10.18;100.00
44934;BME280;30667;43.614;1.442;2023-05-12T02:28:26;100041.13;;;10.16;100.00
44934;BME280;30667;43.614;1.442;2023-05-12T02:30:51;100039.00;;;10.18;100.00
44934;BME280;30667;43.614;1.442;2023-05-12T02:33:19;100048.44;;;10.21;100.00
44934;BME280;30667;43.614;1.442;2023-05-12T02:35:45;100048.69;;;10.24;100.00
44934;BME280;30667;43.614;1.442;2023-05-12T02:38:10;100048.69;;;10.24;100.00
44934;BME280;30667;43.614;1.442;2023-05-12T02:40:36;100049.81;;;10.18;100.00
44934;BME280;30667;43.614;1.442;2023-05-12T02:43:01;100050.88;;;10.17;100.00
44934;BME280;30667;43.614;1.442;2023-05-12T02:45:27;100046.53;;;10.26;100.00
44934;BME280;30667;43.614;1.442;2023-05-12T02:47:52;100047.88;;;10.24;100.00
44934;BME280;30667;43.614;1.442;2023-05-12T02:50:18;100050.84;;;10.27;100.00
44934;BME280;30667;43.614;1.442;2023-05-12T02:52:45;100042.50;;;10.18;100.00
44934;BME280;30667;43.614;1.442;2023-05-12T02:55:11;100047.88;;;10.29;100.00
44934;BME280;30667;43.614;1.442;2023-05-12T02:57:36;100042.47;;;10.24;100.00
44934;BME280;30667;43.614;1.442;2023-05-12T03:00:03;100039.25;;;10.22;100.00
44934;BME280;30667;43.614;1.442;2023-05-12T03:02:30;100038.44;;;10.21;100.00
44934;BME280;30667;43.614;1.442;2023-05-12T03:04:56;100040.34;;;10.15;100.00
44934;BME280;30667;43.614;1.442;2023-05-12T03:07:21;100032.22;;;10.15;100.00
44934;BME280;30667;43.614;1.442;2023-05-12T03:09:47;100036.56;;;10.16;100.00
44934;BME280;30667;43.614;1.442;2023-05-12T03:12:12;100031.69;;;10.13;100.00
44934;BME280;30667;43.614;1.442;2023-05-12T03:14:37;100034.38;;;10.24;100.00
44934;BME280;30667;43.614;1.442;2023-05-12T03:17:03;100028.44;;;10.16;100.00
44934;BME280;30667;43.614;1.442;2023-05-12T03:19:28;100027.34;;;10.17;100.00
44934;BME280;30667;43.614;1.442;2023-05-12T03:21:54;100027.63;;;10.16;100.00
44934;BME280;30667;43.614;1.442;2023-05-12T03:24:19;100026.81;;;10.15;100.00
44934;BME280;30667;43.614;1.442;2023-05-12T03:26:45;100021.69;;;10.14;100.00
44934;BME280;30667;43.614;1.442;2023-05-12T03:29:10;100020.88;;;10.18;100.00
44934;BME280;30667;43.614;1.442;2023-05-12T03:31:36;100022.47;;;10.14;100.00
44934;BME280;30667;43.614;1.442;2023-05-12T03:34:02;100016.81;;;10.16;100.00
44934;BME280;30667;43.614;1.442;2023-05-12T03:36:27;100021.66;;;10.24;100.00
44934;BME280;30667;43.614;1.442;2023-05-12T03:38:52;100020.63;;;10.15;100.00
44934;BME280;30667;43.614;1.442;2023-05-12T03:41:18;100010.88;;;10.14;100.00
44934;BME280;30667;43.614;1.442;2023-05-12T03:43:43;100008.69;;;10.21;100.00
44934;BME280;30667;43.614;1.442;2023-05-12T03:46:09;100010.06;;;10.18;100.00
44934;BME280;30667;43.614;1.442;2023-05-12T03:48:34;100010.31;;;10.22;100.00
44934;BME280;30667;43.614;1.442;2023-05-12T03:50:59;100007.88;;;10.21;100.00
44934;BME280;30667;43.614;1.442;2023-05-12T03:53:25;100001.69;;;10.15;100.00
44934;BME280;30667;43.614;1.442;2023-05-12T03:55:50;100002.22;;;10.17;100.00
44934;BME280;30667;43.614;1.442;2023-05-12T03:58:16;100000.06;;;10.14;100.00
44934;BME280;30667;43.614;1.442;2023-05-12T04:00:41;100003.28;;;10.21;100.00
44934;BME280;30667;43.614;1.442;2023-05-12T04:03:07;100003.28;;;10.16;100.00
44934;BME280;30667;43.614;1.442;2023-05-12T04:05:32;100008.16;;;10.19;100.00
44934;BME280;30667;43.614;1.442;2023-05-12T04:07:58;100005.72;;;10.17;100.00
44934;BME280;30667;43.614;1.442;2023-05-12T04:10:23;99995.97;;;10.22;100.00
44934;BME280;30667;43.614;1.442;2023-05-12T04:12:48;100003.00;;;10.23;100.00
44934;BME280;30667;43.614;1.442;2023-05-12T04:15:14;100003.81;;;10.23;100.00
44934;BME280;30667;43.614;1.442;2023-05-12T04:17:40;100001.66;;;10.20;100.00
44934;BME280;30667;43.614;1.442;2023-05-12T04:20:06;99995.97;;;10.22;100.00
44934;BME280;30667;43.614;1.442;2023-05-12T04:22:32;100001.91;;;10.24;100.00
44934;BME280;30667;43.614;1.442;2023-05-12T04:24:57;100007.56;;;10.27;100.00
44934;BME280;30667;43.614;1.442;2023-05-12T04:27:23;100003.28;;;10.26;100.00
44934;BME280;30667;43.614;1.442;2023-05-12T04:29:48;100006.50;;;10.28;100.00
44934;BME280;30667;43.614;1.442;2023-05-12T04:32:13;100006.25;;;10.25;100.00
44934;BME280;30667;43.614;1.442;2023-05-12T04:34:39;99999.22;;;10.24;100.00
44934;BME280;30667;43.614;1.442;2023-05-12T04:37:04;99998.38;;;10.28;100.00
44934;BME280;30667;43.614;1.442;2023-05-12T04:39:29;99998.38;;;10.28;100.00
44934;BME280;30667;43.614;1.442;2023-05-12T04:41:55;100002.44;;;10.26;100.00
44934;BME280;30667;43.614;1.442;2023-05-12T04:44:20;100000.00;;;10.24;100.00
44934;BME280;30667;43.614;1.442;2023-05-12T04:46:46;100004.59;;;10.29;100.00
44934;BME280;30667;43.614;1.442;2023-05-12T04:49:12;100002.44;;;10.26;100.00
44934;BME280;30667;43.614;1.442;2023-05-12T04:51:37;100006.50;;;10.28;100.00
44934;BME280;30667;43.614;1.442;2023-05-12T04:54:08;100010.28;;;10.27;100.00
44934;BME280;30667;43.614;1.442;2023-05-12T04:56:34;100003.81;;;10.23;100.00
44934;BME280;30667;43.614;1.442;2023-05-12T04:58:59;100008.41;;;10.23;100.00
44934;BME280;30667;43.614;1.442;2023-05-12T05:01:25;100006.22;;;10.30;100.00
44934;BME280;30667;43.614;1.442;2023-05-12T05:03:50;100007.56;;;10.27;100.00
44934;BME280;30667;43.614;1.442;2023-05-12T05:06:16;100014.88;;;10.27;100.00
44934;BME280;30667;43.614;1.442;2023-05-12T05:08:41;100019.72;;;10.40;100.00
44934;BME280;30667;43.614;1.442;2023-05-12T05:11:07;100007.50;;;10.58;100.00
44934;BME280;30667;43.614;1.442;2023-05-12T05:13:32;100008.00;;;10.65;100.00
44934;BME280;30667;43.614;1.442;2023-05-12T05:15:58;100005.69;;;10.88;100.00
44934;BME280;30667;43.614;1.442;2023-05-12T05:18:23;100008.50;;;10.72;100.00
44934;BME280;30667;43.614;1.442;2023-05-12T05:20:48;100015.34;;;10.54;100.00
44934;BME280;30667;43.614;1.442;2023-05-12T05:23:14;100025.66;;;10.47;100.00
44934;BME280;30667;43.614;1.442;2023-05-12T05:25:39;100028.94;;;10.39;100.00
44934;BME280;30667;43.614;1.442;2023-05-12T05:28:05;100024.06;;;10.31;100.00
44934;BME280;30667;43.614;1.442;2023-05-12T05:30:30;100026.22;;;10.29;100.00
44934;BME280;30667;43.614;1.442;2023-05-12T05:32:56;100031.38;;;10.30;100.00
44934;BME280;30667;43.614;1.442;2023-05-12T05:35:21;100024.91;;;10.26;100.00
44934;BME280;30667;43.614;1.442;2023-05-12T05:37:46;100031.66;;;10.24;100.00
44934;BME280;30667;43.614;1.442;2023-05-12T05:40:12;100037.31;;;10.27;100.00
44934;BME280;30667;43.614;1.442;2023-05-12T05:42:37;100035.97;;;10.30;100.00
44934;BME280;30667;43.614;1.442;2023-05-12T05:45:03;100037.09;;;10.34;100.00
44934;BME280;30667;43.614;1.442;2023-05-12T05:47:29;100026.25;;;10.24;100.00
44934;BME280;30667;43.614;1.442;2023-05-12T05:49:56;100027.88;;;10.25;100.00
44934;BME280;30667;43.614;1.442;2023-05-12T05:52:21;100030.03;;;10.33;100.00
44934;BME280;30667;43.614;1.442;2023-05-12T05:54:48;100030.03;;;10.33;100.00
44934;BME280;30667;43.614;1.442;2023-05-12T05:57:14;100029.50;;;10.31;100.00
44934;BME280;30667;43.614;1.442;2023-05-12T05:59:39;100027.31;;;10.38;100.00
44934;BME280;30667;43.614;1.442;2023-05-12T06:02:05;100037.59;;;10.41;100.00
44934;BME280;30667;43.614;1.442;2023-05-12T06:04:30;100037.84;;;10.40;100.00
44934;BME280;30667;43.614;1.442;2023-05-12T06:06:56;100036.50;;;10.42;100.00
44934;BME280;30667;43.614;1.442;2023-05-12T06:09:21;100042.44;;;10.44;100.00
44934;BME280;30667;43.614;1.442;2023-05-12T06:11:46;100035.13;;;10.45;100.00
44934;BME280;30667;43.614;1.442;2023-05-12T06:14:12;100029.72;;;10.50;100.00
44934;BME280;30667;43.614;1.442;2023-05-12T06:16:37;100025.34;;;10.64;100.00
44934;BME280;30667;43.614;1.442;2023-05-12T06:19:03;100022.09;;;10.57;100.00
44934;BME280;30667;43.614;1.442;2023-05-12T06:21:29;100033.19;;;10.66;100.00
44934;BME280;30667;43.614;1.442;2023-05-12T06:23:54;100028.25;;;10.73;100.00
44934;BME280;30667;43.614;1.442;2023-05-12T06:26:20;100020.13;;;10.73;100.00
44934;BME280;30667;43.614;1.442;2023-05-12T06:28:46;100027.38;;;10.83;100.00
44934;BME280;30667;43.614;1.442;2023-05-12T06:31:12;100021.41;;;10.86;100.00
44934;BME280;30667;43.614;1.442;2023-05-12T06:33:38;100019.06;;;10.74;100.00
44934;BME280;30667;43.614;1.442;2023-05-12T06:36:03;100026.88;;;10.81;100.00
44934;BME280;30667;43.614;1.442;2023-05-12T06:38:29;100025.22;;;10.85;100.00
44934;BME280;30667;43.614;1.442;2023-05-12T06:40:54;100021.19;;;10.82;100.00
44934;BME280;30667;43.614;1.442;2023-05-12T06:43:20;100024.41;;;10.84;100.00
44934;BME280;30667;43.614;1.442;2023-05-12T06:45:45;100025.16;;;10.95;100.00
44934;BME280;30667;43.614;1.442;2023-05-12T06:48:10;100026.84;;;10.86;100.00
44934;BME280;30667;43.614;1.442;2023-05-12T06:50:36;100033.59;;;10.88;100.00
44934;BME280;30667;43.614;1.442;2023-05-12T06:53:02;100029.78;;;10.89;100.00
44934;BME280;30667;43.614;1.442;2023-05-12T06:55:27;100030.84;;;10.94;100.00
44934;BME280;30667;43.614;1.442;2023-05-12T06:57:52;100035.72;;;10.97;100.00
44934;BME280;30667;43.614;1.442;2023-05-12T07:00:23;100033.63;;;10.83;100.00
44934;BME280;30667;43.614;1.442;2023-05-12T07:02:50;100037.94;;;10.84;100.00
44934;BME280;30667;43.614;1.442;2023-05-12T07:05:15;100037.91;;;10.95;100.00
44934;BME280;30667;43.614;1.442;2023-05-12T07:07:43;100035.72;;;10.97;100.00
44934;BME280;30667;43.614;1.442;2023-05-12T07:10:09;100044.31;;;11.04;100.00
44934;BME280;30667;43.614;1.442;2023-05-12T07:12:34;100042.72;;;11.03;100.00
44934;BME280;30667;43.614;1.442;2023-05-12T07:15:00;100039.47;;;11.01;100.00
44934;BME280;30667;43.614;1.442;2023-05-12T07:17:25;100047.03;;;11.04;100.00
44934;BME280;30667;43.614;1.442;2023-05-12T07:19:50;100045.75;;;10.96;100.00
44934;BME280;30667;43.614;1.442;2023-05-12T07:22:16;100046.78;;;11.00;100.00
44934;BME280;30667;43.614;1.442;2023-05-12T07:24:42;100041.63;;;11.04;100.00
44934;BME280;30667;43.614;1.442;2023-05-12T07:27:08;100048.69;;;11.00;100.00
44934;BME280;30667;43.614;1.442;2023-05-12T07:29:33;100048.13;;;11.03;100.00
44934;BME280;30667;43.614;1.442;2023-05-12T07:31:59;100045.41;;;11.08;100.00
44934;BME280;30667;43.614;1.442;2023-05-12T07:34:24;100044.03;;;11.05;100.00
44934;BME280;30667;43.614;1.442;2023-05-12T07:36:50;100044.03;;;11.11;100.00
44934;BME280;30667;43.614;1.442;2023-05-12T07:39:15;100047.25;;;11.13;100.00
44934;BME280;30667;43.614;1.442;2023-05-12T07:41:47;100047.25;;;11.13;100.00
44934;BME280;30667;43.614;1.442;2023-05-12T07:44:13;100045.34;;;11.13;100.00
44934;BME280;30667;43.614;1.442;2023-05-12T07:46:38;100044.00;;;11.16;100.00
44934;BME280;30667;43.614;1.442;2023-05-12T07:49:04;100036.91;;;11.20;100.00
44934;BME280;30667;43.614;1.442;2023-05-12T07:51:30;100037.69;;;11.25;100.00
44934;BME280;30667;43.614;1.442;2023-05-12T07:53:56;100043.06;;;11.31;100.00
44934;BME280;30667;43.614;1.442;2023-05-12T07:56:22;100025.66;;;11.42;100.00
44934;BME280;30667;43.614;1.442;2023-05-12T07:58:47;100034.38;;;11.34;100.00
44934;BME280;30667;43.614;1.442;2023-05-12T08:01:13;100036.53;;;11.37;100.00
44934;BME280;30667;43.614;1.442;2023-05-12T08:03:38;100039.19;;;11.42;100.00
44934;BME280;30667;43.614;1.442;2023-05-12T08:06:04;100042.97;;;11.46;100.00
44934;BME280;30667;43.614;1.442;2023-05-12T08:08:32;100042.97;;;11.46;100.00
44934;BME280;30667;43.614;1.442;2023-05-12T08:10:58;100046.00;;;11.39;100.00
44934;BME280;30667;43.614;1.442;2023-05-12T08:13:23;100047.88;;;11.44;100.00
44934;BME280;30667;43.614;1.442;2023-05-12T08:15:50;100053.53;;;11.48;100.00
44934;BME280;30667;43.614;1.442;2023-05-12T08:18:15;100052.13;;;11.50;100.00
44934;BME280;30667;43.614;1.442;2023-05-12T08:20:41;100057.56;;;11.50;100.00
44934;BME280;30667;43.614;1.442;2023-05-12T08:23:06;100058.66;;;11.49;100.00
44934;BME280;30667;43.614;1.442;2023-05-12T08:25:32;100053.03;;;11.40;100.00
44934;BME280;30667;43.614;1.442;2023-05-12T08:27:59;100047.25;;;11.52;100.00
44934;BME280;30667;43.614;1.442;2023-05-12T08:30:25;100050.16;;;11.61;100.00
44934;BME280;30667;43.614;1.442;2023-05-12T08:32:52;100053.31;;;11.73;100.00
44934;BME280;30667;43.614;1.442;2023-05-12T08:35:17;100057.66;;;11.74;100.00
44934;BME280;30667;43.614;1.442;2023-05-12T08:37:43;100049.53;;;11.69;100.00
44934;BME280;30667;43.614;1.442;2023-05-12T08:40:14;100051.56;;;11.88;100.00
44934;BME280;30667;43.614;1.442;2023-05-12T08:42:43;100051.34;;;11.84;100.00
44934;BME280;30667;43.614;1.442;2023-05-12T08:45:12;100049.38;;;11.90;100.00
44934;BME280;30667;43.614;1.442;2023-05-12T08:47:37;100049.94;;;11.92;100.00
44934;BME280;30667;43.614;1.442;2023-05-12T08:50:04;100053.44;;;11.92;100.00
44934;BME280;30667;43.614;1.442;2023-05-12T08:52:34;100050.88;;;12.06;100.00
44934;BME280;30667;43.614;1.442;2023-05-12T08:55:00;100050.63;;;12.03;100.00
44934;BME280;30667;43.614;1.442;2023-05-12T08:57:26;100055.53;;;12.01;100.00
44934;BME280;30667;43.614;1.442;2023-05-12T08:59:53;100055.72;;;12.09;100.00
44934;BME280;30667;43.614;1.442;2023-05-12T09:02:22;100060.34;;;12.09;100.00
44934;BME280;30667;43.614;1.442;2023-05-12T09:04:51;100052.44;;;12.12;100.00
44934;BME280;30667;43.614;1.442;2023-05-12T09:07:19;100054.81;;;12.19;100.00
44934;BME280;30667;43.614;1.442;2023-05-12T09:09:48;100058.34;;;12.20;100.00
44934;BME280;30667;43.614;1.442;2023-05-12T09:12:17;100055.47;;;12.35;100.00
44934;BME280;30667;43.614;1.442;2023-05-12T09:14:44;100060.31;;;12.38;100.00
44934;BME280;30667;43.614;1.442;2023-05-12T09:17:11;100054.63;;;12.34;100.00
44934;BME280;30667;43.614;1.442;2023-05-12T09:19:37;100063.63;;;12.30;100.00
44934;BME280;30667;43.614;1.442;2023-05-12T09:22:02;100059.84;;;12.31;100.00
44934;BME280;30667;43.614;1.442;2023-05-12T09:24:38;100052.41;;;12.42;100.00
44934;BME280;30667;43.614;1.442;2023-05-12T09:27:05;100054.97;;;12.52;100.00
44934;BME280;30667;43.614;1.442;2023-05-12T09:29:31;100064.00;;;12.47;100.00
44934;BME280;30667;43.614;1.442;2023-05-12T09:32:01;100057.47;;;12.48;100.00
44934;BME280;30667;43.614;1.442;2023-05-12T09:34:29;100053.91;;;12.53;100.00
44934;BME280;30667;43.614;1.442;2023-05-12T09:37:03;100058.28;;;12.49;100.00
44934;BME280;30667;43.614;1.442;2023-05-12T09:39:29;100058.25;;;12.54;100.00
44934;BME280;30667;43.614;1.442;2023-05-12T09:41:55;100060.97;;;12.54;100.00
44934;BME280;30667;43.614;1.442;2023-05-12T09:44:22;100068.75;;;12.61;100.00
44934;BME280;30667;43.614;1.442;2023-05-12T09:46:48;100062.16;;;12.67;100.00
44934;BME280;30667;43.614;1.442;2023-05-12T09:49:31;100066.47;;;12.68;100.00
44934;BME280;30667;43.614;1.442;2023-05-12T09:51:57;100066.66;;;12.77;100.00
44934;BME280;30667;43.614;1.442;2023-05-12T09:54:27;100061.50;;;12.75;100.00
44934;BME280;30667;43.614;1.442;2023-05-12T09:56:57;100056.50;;;12.82;100.00
44934;BME280;30667;43.614;1.442;2023-05-12T09:59:23;100065.72;;;12.86;100.00
44934;BME280;30667;43.614;1.442;2023-05-12T10:01:53;100072.06;;;12.77;100.00
44934;BME280;30667;43.614;1.442;2023-05-12T10:04:23;100059.94;;;12.69;100.00
44934;BME280;30667;43.614;1.442;2023-05-12T10:06:50;100058.97;;;12.60;100.00
44934;BME280;30667;43.614;1.442;2023-05-12T10:09:23;100059.47;;;12.62;100.00
44934;BME280;30667;43.614;1.442;2023-05-12T10:11:50;100058.31;;;12.68;100.00
44934;BME280;30667;43.614;1.442;2023-05-12T10:14:16;100063.59;;;12.59;100.00
44934;BME280;30667;43.614;1.442;2023-05-12T10:16:44;100055.47;;;12.59;100.00
44934;BME280;30667;43.614;1.442;2023-05-12T10:19:13;100054.63;;;12.59;100.00
44934;BME280;30667;43.614;1.442;2023-05-12T10:21:42;100047.53;;;12.63;100.00
44934;BME280;30667;43.614;1.442;2023-05-12T10:24:11;100044.81;;;12.63;100.00
44934;BME280;30667;43.614;1.442;2023-05-12T10:26:38;100045.34;;;12.65;100.00
44934;BME280;30667;43.614;1.442;2023-05-12T10:29:05;100039.03;;;12.69;100.00
44934;BME280;30667;43.614;1.442;2023-05-12T10:31:32;100039.72;;;12.80;100.00
44934;BME280;30667;43.614;1.442;2023-05-12T10:34:01;100034.88;;;12.77;100.00
44934;BME280;30667;43.614;1.442;2023-05-12T10:36:27;100034.50;;;12.84;100.00
44934;BME280;30667;43.614;1.442;2023-05-12T10:38:53;100032.28;;;12.86;100.00
44934;BME280;30667;43.614;1.442;2023-05-12T10:41:33;100037.13;;;12.89;100.00
44934;BME280;30667;43.614;1.442;2023-05-12T10:43:59;100034.44;;;12.89;100.00
44934;BME280;30667;43.614;1.442;2023-05-12T10:46:26;100028.50;;;12.87;100.00
44934;BME280;30667;43.614;1.442;2023-05-12T10:51:30;100023.63;;;12.84;100.00
44934;BME280;30667;43.614;1.442;2023-05-12T10:53:57;100021.00;;;12.79;100.00
44934;BME280;30667;43.614;1.442;2023-05-12T10:56:26;100022.09;;;12.97;100.00
44934;BME280;30667;43.614;1.442;2023-05-12T11:01:37;100018.22;;;13.22;100.00
44934;BME280;30667;43.614;1.442;2023-05-12T11:04:16;100018.72;;;13.24;100.00
44934;BME280;30667;43.614;1.442;2023-05-12T11:06:43;100007.16;;;13.32;100.00
44934;BME280;30667;43.614;1.442;2023-05-12T11:09:10;100000.94;;;13.51;100.00
44934;BME280;30667;43.614;1.442;2023-05-12T11:11:36;99995.16;;;13.71;100.00
44934;BME280;30667;43.614;1.442;2023-05-12T11:14:02;100000.41;;;13.81;100.00
44934;BME280;30667;43.614;1.442;2023-05-12T11:16:27;99994.88;;;13.87;100.00
44934;BME280;30667;43.614;1.442;2023-05-12T11:19:04;99991.25;;;13.91;100.00
44934;BME280;30667;43.614;1.442;2023-05-12T11:21:33;99992.28;;;14.09;100.00
44934;BME280;30667;43.614;1.442;2023-05-12T11:24:00;99985.34;;;14.17;100.00
44934;BME280;30667;43.614;1.442;2023-05-12T11:26:26;99987.53;;;14.29;100.00
44934;BME280;30667;43.614;1.442;2023-05-12T11:28:52;99987.22;;;14.30;100.00
44934;BME280;30667;43.614;1.442;2023-05-12T11:31:19;99985.84;;;14.19;100.00
44934;BME280;30667;43.614;1.442;2023-05-12T11:33:45;99988.06;;;14.17;100.00
44934;BME280;30667;43.614;1.442;2023-05-12T11:36:11;99988.34;;;14.15;100.00
44934;BME280;30667;43.614;1.442;2023-05-12T11:38:36;99989.03;;;13.93;100.00
44934;BME280;30667;43.614;1.442;2023-05-12T11:41:02;99985.41;;;13.84;100.00
44934;BME280;30667;43.614;1.442;2023-05-12T11:43:28;99981.94;;;13.78;100.00
44934;BME280;30667;43.614;1.442;2023-05-12T11:45:53;99985.41;;;13.84;100.00
44934;BME280;30667;43.614;1.442;2023-05-12T11:48:31;99988.41;;;13.83;100.00
44934;BME280;30667;43.614;1.442;2023-05-12T11:50:58;99990.63;;;13.80;100.00
44934;BME280;30667;43.614;1.442;2023-05-12T11:53:25;99989.41;;;13.73;100.00
44934;BME280;30667;43.614;1.442;2023-05-12T11:55:53;99982.28;;;13.77;100.00
44934;BME280;30667;43.614;1.442;2023-05-12T11:58:27;99978.13;;;13.79;100.00
44934;BME280;30667;43.614;1.442;2023-05-12T12:00:55;99980.84;;;13.79;100.00
44934;BME280;30667;43.614;1.442;2023-05-12T12:03:22;99980.03;;;13.65;100.00
44934;BME280;30667;43.614;1.442;2023-05-12T12:05:59;99975.09;;;13.67;100.00
44934;BME280;30667;43.614;1.442;2023-05-12T12:08:25;99971.41;;;13.77;100.00
44934;BME280;30667;43.614;1.442;2023-05-12T12:10:50;99970.78;;;13.80;100.00
44934;BME280;30667;43.614;1.442;2023-05-12T12:13:24;99972.72;;;13.93;100.00
44934;BME280;30667;43.614;1.442;2023-05-12T12:15:50;99964.59;;;14.07;100.00
44934;BME280;30667;43.614;1.442;2023-05-12T12:18:16;99961.75;;;14.12;100.00
44934;BME280;30667;43.614;1.442;2023-05-12T12:20:43;99955.00;;;14.24;100.00
44934;BME280;30667;43.614;1.442;2023-05-12T12:23:09;99947.31;;;14.26;100.00
44934;BME280;30667;43.614;1.442;2023-05-12T12:25:34;99954.25;;;14.46;100.00
44934;BME280;30667;43.614;1.442;2023-05-12T12:28:00;99946.91;;;14.46;100.00
44934;BME280;30667;43.614;1.442;2023-05-12T12:30:26;99951.25;;;14.47;100.00
44934;BME280;30667;43.614;1.442;2023-05-12T12:32:51;99955.47;;;14.53;100.00
44934;BME280;30667;43.614;1.442;2023-05-12T12:35:17;99956.97;;;14.60;100.00
44934;BME280;30667;43.614;1.442;2023-05-12T12:37:44;99944.78;;;14.43;100.00
44934;BME280;30667;43.614;1.442;2023-05-12T12:40:15;99934.91;;;14.33;100.00
44934;BME280;30667;43.614;1.442;2023-05-12T12:42:40;99935.41;;;14.49;100.00